sensor_id;sensor_type;location;lat;lon;timestamp;temperature;humidity
46890;DHT22;32625;51.080;16.970;2023-03-01T00:01:07;-2.30;99.90
46890;DHT22;32625;51.080;16.970;2023-03-01T00:03:34;-2.30;99.90
46890;DHT22;32625;51.080;16.970;2023-03-01T00:06:01;-3.00;99.90
46890;DHT22;32625;51.080;16.970;2023-03-01T00:08:28;-2.30;99.90
46890;DHT22;32625;51.080;16.970;2023-03-01T00:13:39;-2.30;99.90
46890;DHT22;32625;51.080;16.970;2023-03-01T00:16:06;-2.30;99.90
46890;DHT22;32625;51.080;16.970;2023-03-01T00:18:34;-2.30;99.90
46890;DHT22;32625;51.080;16.970;2023-03-01T00:21:01;-2.40;99.90
46890;DHT22;32625;51.080;16.970;2023-03-01T00:23:28;-2.40;99.90
46890;DHT22;32625;51.080;16.970;2023-03-01T00:25:55;-2.50;99.90
46890;DHT22;32625;51.080;16.970;2023-03-01T00:28:22;-2.50;99.90
46890;DHT22;32625;51.080;16.970;2023-03-01T00:30:49;-1.70;99.90
46890;DHT22;32625;51.080;16.970;2023-03-01T00:33:17;-2.50;99.90
46890;DHT22;32625;51.080;16.970;2023-03-01T00:35:44;-2.50;99.90
46890;DHT22;32625;51.080;16.970;2023-03-01T00:38:11;-2.50;99.90
46890;DHT22;32625;51.080;16.970;2023-03-01T00:40:38;-2.60;99.90
46890;DHT22;32625;51.080;16.970;2023-03-01T00:43:05;-1.80;99.90
46890;DHT22;32625;51.080;16.970;2023-03-01T00:45:32;-2.60;99.90
46890;DHT22;32625;51.080;16.970;2023-03-01T00:47:59;-1.80;99.90
46890;DHT22;32625;51.080;16.970;2023-03-01T00:50:27;-2.50;99.90
46890;DHT22;32625;51.080;16.970;2023-03-01T00:52:54;-2.60;99.90
46890;DHT22;32625;51.080;16.970;2023-03-01T00:55:22;-2.60;99.90
46890;DHT22;32625;51.080;16.970;2023-03-01T00:57:49;-2.60;99.90
46890;DHT22;32625;51.080;16.970;2023-03-01T01:00:16;-1.40;99.90
46890;DHT22;32625;51.080;16.970;2023-03-01T01:02:43;-2.70;99.90
46890;DHT22;32625;51.080;16.970;2023-03-01T01:05:10;-2.80;99.90
46890;DHT22;32625;51.080;16.970;2023-03-01T01:07:38;-1.90;99.90
46890;DHT22;32625;51.080;16.970;2023-03-01T01:10:05;-2.70;99.90
46890;DHT22;32625;51.080;16.970;2023-03-01T01:12:32;-2.80;99.90
46890;DHT22;32625;51.080;16.970;2023-03-01T01:14:59;-2.80;99.90
46890;DHT22;32625;51.080;16.970;2023-03-01T01:17:26;-2.60;99.90
46890;DHT22;32625;51.080;16.970;2023-03-01T01:19:53;-2.80;99.90
46890;DHT22;32625;51.080;16.970;2023-03-01T01:22:20;-1.00;99.90
46890;DHT22;32625;51.080;16.970;2023-03-01T01:24:47;-2.90;99.90
46890;DHT22;32625;51.080;16.970;2023-03-01T01:27:14;-2.10;99.90
46890;DHT22;32625;51.080;16.970;2023-03-01T01:29:41;-2.90;99.90
46890;DHT22;32625;51.080;16.970;2023-03-01T01:32:08;-2.20;99.90
46890;DHT22;32625;51.080;16.970;2023-03-01T01:34:35;-2.90;99.90
46890;DHT22;32625;51.080;16.970;2023-03-01T01:37:02;-2.20;99.90
46890;DHT22;32625;51.080;16.970;2023-03-01T01:39:29;-3.00;99.90
46890;DHT22;32625;51.080;16.970;2023-03-01T01:41:56;-3.00;99.90
46890;DHT22;32625;51.080;16.970;2023-03-01T01:44:25;-3.00;99.90
46890;DHT22;32625;51.080;16.970;2023-03-01T01:46:56;-2.90;99.90
46890;DHT22;32625;51.080;16.970;2023-03-01T01:49:25;-3.10;99.90
46890;DHT22;32625;51.080;16.970;2023-03-01T01:52:01;-2.40;99.90
46890;DHT22;32625;51.080;16.970;2023-03-01T01:54:53;-3.10;99.90
46890;DHT22;32625;51.080;16.970;2023-03-01T01:57:18;-3.20;99.90
46890;DHT22;32625;51.080;16.970;2023-03-01T01:59:49;-3.20;99.90
46890;DHT22;32625;51.080;16.970;2023-03-01T02:02:17;-3.20;99.90
46890;DHT22;32625;51.080;16.970;2023-03-01T02:04:44;-3.20;99.90
46890;DHT22;32625;51.080;16.970;2023-03-01T02:07:15;-3.20;99.90
46890;DHT22;32625;51.080;16.970;2023-03-01T02:09:44;-2.80;99.90
46890;DHT22;32625;51.080;16.970;2023-03-01T02:12:12;-3.20;99.90
46890;DHT22;32625;51.080;16.970;2023-03-01T02:14:39;-2.20;99.90
46890;DHT22;32625;51.080;16.970;2023-03-01T02:17:06;-3.30;99.90
46890;DHT22;32625;51.080;16.970;2023-03-01T02:19:40;-3.10;99.90
46890;DHT22;32625;51.080;16.970;2023-03-01T02:27:23;-3.40;99.90
46890;DHT22;32625;51.080;16.970;2023-03-01T02:29:52;-3.30;99.90
46890;DHT22;32625;51.080;16.970;2023-03-01T02:32:21;-3.40;99.90
46890;DHT22;32625;51.080;16.970;2023-03-01T02:34:52;-2.10;99.90
46890;DHT22;32625;51.080;16.970;2023-03-01T02:37:20;-3.40;99.90
46890;DHT22;32625;51.080;16.970;2023-03-01T02:39:56;-4.40;99.90
46890;DHT22;32625;51.080;16.970;2023-03-01T02:42:36;-3.00;99.90
46890;DHT22;32625;51.080;16.970;2023-03-01T02:45:05;-3.40;99.90
46890;DHT22;32625;51.080;16.970;2023-03-01T02:47:32;-3.40;99.90
46890;DHT22;32625;51.080;16.970;2023-03-01T02:49:59;-3.40;99.90
46890;DHT22;32625;51.080;16.970;2023-03-01T02:57:31;-3.50;99.90
46890;DHT22;32625;51.080;16.970;2023-03-01T02:59:59;-3.60;99.90
46890;DHT22;32625;51.080;16.970;2023-03-01T03:02:29;-4.30;99.90
46890;DHT22;32625;51.080;16.970;2023-03-01T03:05:14;-3.00;99.90
46890;DHT22;32625;51.080;16.970;2023-03-01T03:07:42;-3.80;99.90
46890;DHT22;32625;51.080;16.970;2023-03-01T03:10:10;-3.70;99.90
46890;DHT22;32625;51.080;16.970;2023-03-01T03:12:38;-3.70;99.90
46890;DHT22;32625;51.080;16.970;2023-03-01T03:15:06;-3.40;99.90
46890;DHT22;32625;51.080;16.970;2023-03-01T03:17:36;-3.70;99.90
46890;DHT22;32625;51.080;16.970;2023-03-01T03:20:08;-2.00;99.90
46890;DHT22;32625;51.080;16.970;2023-03-01T03:22:38;-3.80;99.90
46890;DHT22;32625;51.080;16.970;2023-03-01T03:25:07;-2.40;99.90
46890;DHT22;32625;51.080;16.970;2023-03-01T03:27:40;-4.70;99.90
46890;DHT22;32625;51.080;16.970;2023-03-01T03:30:09;-3.70;99.90
46890;DHT22;32625;51.080;16.970;2023-03-01T03:32:36;-3.70;99.90
46890;DHT22;32625;51.080;16.970;2023-03-01T03:35:04;-3.80;99.90
46890;DHT22;32625;51.080;16.970;2023-03-01T03:37:39;-4.60;99.90
46890;DHT22;32625;51.080;16.970;2023-03-01T03:40:26;-3.80;99.90
46890;DHT22;32625;51.080;16.970;2023-03-01T03:42:53;-3.80;99.90
46890;DHT22;32625;51.080;16.970;2023-03-01T03:45:20;-3.90;99.90
46890;DHT22;32625;51.080;16.970;2023-03-01T03:47:47;-3.20;99.90
46890;DHT22;32625;51.080;16.970;2023-03-01T03:50:15;-3.80;99.90
46890;DHT22;32625;51.080;16.970;2023-03-01T03:52:43;-3.90;99.90
46890;DHT22;32625;51.080;16.970;2023-03-01T03:55:11;-3.90;99.90
46890;DHT22;32625;51.080;16.970;2023-03-01T03:57:38;-3.90;99.90
46890;DHT22;32625;51.080;16.970;2023-03-01T04:00:06;-3.90;99.90
46890;DHT22;32625;51.080;16.970;2023-03-01T04:02:40;-4.00;99.90
46890;DHT22;32625;51.080;16.970;2023-03-01T04:05:08;-4.00;99.90
46890;DHT22;32625;51.080;16.970;2023-03-01T04:07:36;-4.00;99.90
46890;DHT22;32625;51.080;16.970;2023-03-01T04:10:05;-4.10;99.90
46890;DHT22;32625;51.080;16.970;2023-03-01T04:12:33;-4.10;99.90
46890;DHT22;32625;51.080;16.970;2023-03-01T04:15:04;-4.00;99.90
46890;DHT22;32625;51.080;16.970;2023-03-01T04:17:42;-4.00;99.90
46890;DHT22;32625;51.080;16.970;2023-03-01T04:20:10;-4.10;99.90
46890;DHT22;32625;51.080;16.970;2023-03-01T04:22:38;-4.10;99.90
46890;DHT22;32625;51.080;16.970;2023-03-01T04:25:05;-4.10;99.90
46890;DHT22;32625;51.080;16.970;2023-03-01T04:27:33;-4.10;99.90
46890;DHT22;32625;51.080;16.970;2023-03-01T04:30:00;-4.10;99.90
46890;DHT22;32625;51.080;16.970;2023-03-01T04:32:27;-4.10;99.90
46890;DHT22;32625;51.080;16.970;2023-03-01T04:34:54;-4.10;99.90
46890;DHT22;32625;51.080;16.970;2023-03-01T04:37:21;-4.10;99.90
46890;DHT22;32625;51.080;16.970;2023-03-01T04:39:48;-4.10;99.90
46890;DHT22;32625;51.080;16.970;2023-03-01T04:42:15;-2.80;99.90
46890;DHT22;32625;51.080;16.970;2023-03-01T04:44:43;-4.20;99.90
46890;DHT22;32625;51.080;16.970;2023-03-01T04:47:11;-4.20;99.90
46890;DHT22;32625;51.080;16.970;2023-03-01T04:49:38;-4.30;99.90
46890;DHT22;32625;51.080;16.970;2023-03-01T04:52:05;-2.90;99.90
46890;DHT22;32625;51.080;16.970;2023-03-01T04:54:32;-4.30;99.90
46890;DHT22;32625;51.080;16.970;2023-03-01T04:57:00;-4.80;99.90
46890;DHT22;32625;51.080;16.970;2023-03-01T04:59:27;-4.20;99.90
46890;DHT22;32625;51.080;16.970;2023-03-01T05:01:55;-4.20;99.90
46890;DHT22;32625;51.080;16.970;2023-03-01T05:04:23;-4.30;99.90
46890;DHT22;32625;51.080;16.970;2023-03-01T05:06:50;-2.50;99.90
46890;DHT22;32625;51.080;16.970;2023-03-01T05:09:17;-4.40;99.90
46890;DHT22;32625;51.080;16.970;2023-03-01T05:11:44;-3.30;99.90
46890;DHT22;32625;51.080;16.970;2023-03-01T05:14:11;-4.40;99.90
46890;DHT22;32625;51.080;16.970;2023-03-01T05:16:38;-2.70;99.90
46890;DHT22;32625;51.080;16.970;2023-03-01T05:19:05;-4.30;99.90
46890;DHT22;32625;51.080;16.970;2023-03-01T05:21:38;-4.30;99.90
46890;DHT22;32625;51.080;16.970;2023-03-01T05:24:25;-4.30;99.90
46890;DHT22;32625;51.080;16.970;2023-03-01T05:26:53;-4.40;99.90
46890;DHT22;32625;51.080;16.970;2023-03-01T05:29:21;-4.00;99.90
46890;DHT22;32625;51.080;16.970;2023-03-01T05:31:54;-4.50;99.90
46890;DHT22;32625;51.080;16.970;2023-03-01T05:34:25;-3.70;99.90
46890;DHT22;32625;51.080;16.970;2023-03-01T05:36:52;-4.40;99.90
46890;DHT22;32625;51.080;16.970;2023-03-01T05:39:23;-3.20;99.90
46890;DHT22;32625;51.080;16.970;2023-03-01T05:41:54;-4.40;99.90
46890;DHT22;32625;51.080;16.970;2023-03-01T05:44:21;-4.40;99.90
46890;DHT22;32625;51.080;16.970;2023-03-01T05:46:48;-4.40;99.90
46890;DHT22;32625;51.080;16.970;2023-03-01T05:49:16;-3.00;99.90
46890;DHT22;32625;51.080;16.970;2023-03-01T05:51:43;-4.40;99.90
46890;DHT22;32625;51.080;16.970;2023-03-01T05:54:13;-4.40;99.90
46890;DHT22;32625;51.080;16.970;2023-03-01T05:56:41;-4.40;99.90
46890;DHT22;32625;51.080;16.970;2023-03-01T05:59:07;-4.40;99.90
46890;DHT22;32625;51.080;16.970;2023-03-01T06:01:35;-4.40;99.90
46890;DHT22;32625;51.080;16.970;2023-03-01T06:04:02;-4.40;99.90
46890;DHT22;32625;51.080;16.970;2023-03-01T06:06:33;-4.40;99.90
46890;DHT22;32625;51.080;16.970;2023-03-01T06:09:00;-4.30;99.90
46890;DHT22;32625;51.080;16.970;2023-03-01T06:11:27;-4.30;99.90
46890;DHT22;32625;51.080;16.970;2023-03-01T06:13:54;-4.40;99.90
46890;DHT22;32625;51.080;16.970;2023-03-01T06:16:21;-4.40;99.90
46890;DHT22;32625;51.080;16.970;2023-03-01T06:18:48;-4.30;99.90
46890;DHT22;32625;51.080;16.970;2023-03-01T06:21:15;-4.00;99.90
46890;DHT22;32625;51.080;16.970;2023-03-01T06:23:42;-4.30;99.90
46890;DHT22;32625;51.080;16.970;2023-03-01T06:26:09;-2.90;99.90
46890;DHT22;32625;51.080;16.970;2023-03-01T06:28:36;-4.20;99.90
46890;DHT22;32625;51.080;16.970;2023-03-01T06:31:03;-2.70;99.90
46890;DHT22;32625;51.080;16.970;2023-03-01T06:33:30;-4.00;99.90
46890;DHT22;32625;51.080;16.970;2023-03-01T06:35:57;-4.00;99.90
46890;DHT22;32625;51.080;16.970;2023-03-01T06:38:24;-4.00;99.90
46890;DHT22;32625;51.080;16.970;2023-03-01T06:40:52;-3.90;99.90
46890;DHT22;32625;51.080;16.970;2023-03-01T06:43:21;-3.90;99.90
46890;DHT22;32625;51.080;16.970;2023-03-01T06:45:48;-3.80;99.90
46890;DHT22;32625;51.080;16.970;2023-03-01T06:48:15;-3.20;99.90
46890;DHT22;32625;51.080;16.970;2023-03-01T06:50:42;-2.70;99.90
46890;DHT22;32625;51.080;16.970;2023-03-01T06:53:09;-3.60;99.90
46890;DHT22;32625;51.080;16.970;2023-03-01T06:55:36;-2.30;99.90
46890;DHT22;32625;51.080;16.970;2023-03-01T06:58:03;-3.50;99.90
46890;DHT22;32625;51.080;16.970;2023-03-01T07:00:30;-3.50;99.90
46890;DHT22;32625;51.080;16.970;2023-03-01T07:03:00;-3.40;99.90
46890;DHT22;32625;51.080;16.970;2023-03-01T07:05:29;-3.30;99.90
46890;DHT22;32625;51.080;16.970;2023-03-01T07:07:56;-3.30;99.90
46890;DHT22;32625;51.080;16.970;2023-03-01T07:10:23;-3.20;99.90
46890;DHT22;32625;51.080;16.970;2023-03-01T07:12:50;-2.20;99.90
46890;DHT22;32625;51.080;16.970;2023-03-01T07:15:17;-3.00;99.90
46890;DHT22;32625;51.080;16.970;2023-03-01T07:17:44;-1.60;99.90
46890;DHT22;32625;51.080;16.970;2023-03-01T07:20:11;-3.00;99.90
46890;DHT22;32625;51.080;16.970;2023-03-01T07:22:41;-2.90;99.90
46890;DHT22;32625;51.080;16.970;2023-03-01T07:25:09;-2.80;99.90
46890;DHT22;32625;51.080;16.970;2023-03-01T07:27:36;-1.30;99.90
46890;DHT22;32625;51.080;16.970;2023-03-01T07:30:03;-2.70;99.90
46890;DHT22;32625;51.080;16.970;2023-03-01T07:32:30;-2.60;99.90
46890;DHT22;32625;51.080;16.970;2023-03-01T07:34:57;-2.50;99.90
46890;DHT22;32625;51.080;16.970;2023-03-01T07:37:24;-2.40;99.90
46890;DHT22;32625;51.080;16.970;2023-03-01T07:39:51;-2.40;99.90
46890;DHT22;32625;51.080;16.970;2023-03-01T07:42:18;-2.70;99.90
46890;DHT22;32625;51.080;16.970;2023-03-01T07:44:45;-2.30;99.90
46890;DHT22;32625;51.080;16.970;2023-03-01T07:47:12;-1.20;99.90
46890;DHT22;32625;51.080;16.970;2023-03-01T07:49:39;-2.20;99.90
46890;DHT22;32625;51.080;16.970;2023-03-01T07:52:06;-2.10;99.90
46890;DHT22;32625;51.080;16.970;2023-03-01T07:54:33;-2.10;99.90
46890;DHT22;32625;51.080;16.970;2023-03-01T07:57:00;-0.70;99.90
46890;DHT22;32625;51.080;16.970;2023-03-01T07:59:27;-2.00;99.90
46890;DHT22;32625;51.080;16.970;2023-03-01T08:01:56;-1.90;99.90
46890;DHT22;32625;51.080;16.970;2023-03-01T08:04:23;-1.80;99.90
46890;DHT22;32625;51.080;16.970;2023-03-01T08:06:51;-1.70;99.90
46890;DHT22;32625;51.080;16.970;2023-03-01T08:09:18;-1.00;99.90
46890;DHT22;32625;51.080;16.970;2023-03-01T08:11:45;-1.60;99.90
46890;DHT22;32625;51.080;16.970;2023-03-01T08:14:12;0.20;99.90
46890;DHT22;32625;51.080;16.970;2023-03-01T08:16:39;-1.40;99.90
46890;DHT22;32625;51.080;16.970;2023-03-01T08:19:07;-0.90;99.90
46890;DHT22;32625;51.080;16.970;2023-03-01T08:21:34;-1.30;99.90
46890;DHT22;32625;51.080;16.970;2023-03-01T08:24:05;-1.20;99.90
46890;DHT22;32625;51.080;16.970;2023-03-01T08:26:36;-1.10;99.90
46890;DHT22;32625;51.080;16.970;2023-03-01T08:29:03;-1.00;99.90
46890;DHT22;32625;51.080;16.970;2023-03-01T08:33:58;-0.90;99.90
46890;DHT22;32625;51.080;16.970;2023-03-01T08:36:29;-1.30;99.90
46890;DHT22;32625;51.080;16.970;2023-03-01T08:38:57;-0.80;99.90
46890;DHT22;32625;51.080;16.970;2023-03-01T08:41:24;-0.60;99.90
46890;DHT22;32625;51.080;16.970;2023-03-01T08:43:51;-0.60;99.90
46890;DHT22;32625;51.080;16.970;2023-03-01T08:46:19;-0.50;99.90
46890;DHT22;32625;51.080;16.970;2023-03-01T08:48:46;-0.40;99.90
46890;DHT22;32625;51.080;16.970;2023-03-01T08:51:15;-0.30;99.90
46890;DHT22;32625;51.080;16.970;2023-03-01T08:53:43;-0.30;99.90
46890;DHT22;32625;51.080;16.970;2023-03-01T08:56:10;-0.20;99.90
46890;DHT22;32625;51.080;16.970;2023-03-01T08:58:37;-0.10;99.90
46890;DHT22;32625;51.080;16.970;2023-03-01T09:01:08;0.00;99.90
46890;DHT22;32625;51.080;16.970;2023-03-01T09:03:35;0.10;99.90
46890;DHT22;32625;51.080;16.970;2023-03-01T09:06:03;0.20;99.90
46890;DHT22;32625;51.080;16.970;2023-03-01T09:08:30;0.30;99.90
46890;DHT22;32625;51.080;16.970;2023-03-01T09:10:57;0.40;99.90
46890;DHT22;32625;51.080;16.970;2023-03-01T09:13:24;0.50;99.90
46890;DHT22;32625;51.080;16.970;2023-03-01T09:15:54;0.60;99.90
46890;DHT22;32625;51.080;16.970;2023-03-01T09:18:21;0.70;99.90
46890;DHT22;32625;51.080;16.970;2023-03-01T09:20:48;0.40;99.90
46890;DHT22;32625;51.080;16.970;2023-03-01T09:23:15;0.70;99.90
46890;DHT22;32625;51.080;16.970;2023-03-01T09:25:42;0.90;99.90
46890;DHT22;32625;51.080;16.970;2023-03-01T09:28:09;0.90;99.90
46890;DHT22;32625;51.080;16.970;2023-03-01T09:30:57;1.00;99.90
46890;DHT22;32625;51.080;16.970;2023-03-01T09:33:24;1.10;99.90
46890;DHT22;32625;51.080;16.970;2023-03-01T09:35:55;1.20;99.90
46890;DHT22;32625;51.080;16.970;2023-03-01T09:38:22;1.30;99.90
46890;DHT22;32625;51.080;16.970;2023-03-01T09:40:52;1.30;99.90
46890;DHT22;32625;51.080;16.970;2023-03-01T09:46:06;1.30;99.90
46890;DHT22;32625;51.080;16.970;2023-03-01T09:51:29;1.40;99.90
46890;DHT22;32625;51.080;16.970;2023-03-01T09:53:57;1.40;99.90
46890;DHT22;32625;51.080;16.970;2023-03-01T09:56:37;1.50;99.40
46890;DHT22;32625;51.080;16.970;2023-03-01T10:01:40;1.60;98.60
46890;DHT22;32625;51.080;16.970;2023-03-01T10:04:12;1.80;96.80
46890;DHT22;32625;51.080;16.970;2023-03-01T10:07:11;1.80;94.50
46890;DHT22;32625;51.080;16.970;2023-03-01T10:09:36;1.80;94.30
46890;DHT22;32625;51.080;16.970;2023-03-01T10:12:04;1.80;94.50
46890;DHT22;32625;51.080;16.970;2023-03-01T10:14:35;1.80;94.80
46890;DHT22;32625;51.080;16.970;2023-03-01T10:17:04;1.90;93.10
46890;DHT22;32625;51.080;16.970;2023-03-01T10:19:39;2.00;93.00
46890;DHT22;32625;51.080;16.970;2023-03-01T10:24:39;1.90;91.40
46890;DHT22;32625;51.080;16.970;2023-03-01T10:27:13;2.10;90.60
46890;DHT22;32625;51.080;16.970;2023-03-01T10:30:05;2.10;88.50
46890;DHT22;32625;51.080;16.970;2023-03-01T10:32:36;2.20;89.60
46890;DHT22;32625;51.080;16.970;2023-03-01T10:35:19;2.30;89.90
46890;DHT22;32625;51.080;16.970;2023-03-01T10:40:27;2.30;89.00
46890;DHT22;32625;51.080;16.970;2023-03-01T10:42:54;2.40;90.40
46890;DHT22;32625;51.080;16.970;2023-03-01T10:50:44;2.10;88.70
46890;DHT22;32625;51.080;16.970;2023-03-01T10:55:47;2.70;90.90
46890;DHT22;32625;51.080;16.970;2023-03-01T10:58:23;2.70;91.60
46890;DHT22;32625;51.080;16.970;2023-03-01T11:00:53;2.80;90.50
46890;DHT22;32625;51.080;16.970;2023-03-01T11:04:03;2.90;90.10
46890;DHT22;32625;51.080;16.970;2023-03-01T11:08:41;2.90;89.90
46890;DHT22;32625;51.080;16.970;2023-03-01T11:13:49;3.20;85.30
46890;DHT22;32625;51.080;16.970;2023-03-01T11:16:17;3.30;84.00
46890;DHT22;32625;51.080;16.970;2023-03-01T11:18:57;3.30;81.60
46890;DHT22;32625;51.080;16.970;2023-03-01T11:21:24;3.20;78.40
46890;DHT22;32625;51.080;16.970;2023-03-01T11:23:52;3.10;80.70
46890;DHT22;32625;51.080;16.970;2023-03-01T11:26:19;3.20;78.40
46890;DHT22;32625;51.080;16.970;2023-03-01T11:28:49;3.30;78.50
46890;DHT22;32625;51.080;16.970;2023-03-01T11:31:17;3.30;76.30
46890;DHT22;32625;51.080;16.970;2023-03-01T11:33:54;3.30;73.20
46890;DHT22;32625;51.080;16.970;2023-03-01T11:39:12;3.40;75.50
46890;DHT22;32625;51.080;16.970;2023-03-01T11:41:44;3.50;75.90
46890;DHT22;32625;51.080;16.970;2023-03-01T11:44:23;3.40;76.10
46890;DHT22;32625;51.080;16.970;2023-03-01T11:52:01;3.70;75.20
46890;DHT22;32625;51.080;16.970;2023-03-01T11:57:00;3.80;75.40
46890;DHT22;32625;51.080;16.970;2023-03-01T12:07:20;4.00;74.90
46890;DHT22;32625;51.080;16.970;2023-03-01T12:35:22;4.40;67.00
46890;DHT22;32625;51.080;16.970;2023-03-01T12:43:27;4.30;66.80
46890;DHT22;32625;51.080;16.970;2023-03-01T12:46:02;4.30;66.80
46890;DHT22;32625;51.080;16.970;2023-03-01T12:51:24;4.40;62.10
46890;DHT22;32625;51.080;16.970;2023-03-01T12:53:53;4.30;63.10
46890;DHT22;32625;51.080;16.970;2023-03-01T12:56:22;4.40;63.60
46890;DHT22;32625;51.080;16.970;2023-03-01T13:01:59;4.40;62.40
46890;DHT22;32625;51.080;16.970;2023-03-01T13:12:42;4.70;58.80
46890;DHT22;32625;51.080;16.970;2023-03-01T13:20:25;4.60;59.90
46890;DHT22;32625;51.080;16.970;2023-03-01T13:23:01;4.60;61.40
46890;DHT22;32625;51.080;16.970;2023-03-01T13:25:28;4.10;61.90
46890;DHT22;32625;51.080;16.970;2023-03-01T13:30:52;4.70;57.80
46890;DHT22;32625;51.080;16.970;2023-03-01T13:35:53;4.80;58.40
46890;DHT22;32625;51.080;16.970;2023-03-01T13:41:07;4.70;56.90
46890;DHT22;32625;51.080;16.970;2023-03-01T13:43:35;4.70;57.40
46890;DHT22;32625;51.080;16.970;2023-03-01T13:46:07;4.50;55.50
46890;DHT22;32625;51.080;16.970;2023-03-01T13:48:35;4.80;54.60
46890;DHT22;32625;51.080;16.970;2023-03-01T13:51:03;4.80;55.50
46890;DHT22;32625;51.080;16.970;2023-03-01T13:53:33;4.80;53.70
46890;DHT22;32625;51.080;16.970;2023-03-01T13:56:02;4.80;51.70
46890;DHT22;32625;51.080;16.970;2023-03-01T13:58:30;4.70;51.80
46890;DHT22;32625;51.080;16.970;2023-03-01T14:00:59;4.70;52.60
46890;DHT22;32625;51.080;16.970;2023-03-01T14:03:27;4.70;50.70
46890;DHT22;32625;51.080;16.970;2023-03-01T14:08:39;4.70;50.10
46890;DHT22;32625;51.080;16.970;2023-03-01T14:16:15;4.70;50.60
46890;DHT22;32625;51.080;16.970;2023-03-01T14:18:52;4.70;50.70
46890;DHT22;32625;51.080;16.970;2023-03-01T14:21:22;4.70;51.20
46890;DHT22;32625;51.080;16.970;2023-03-01T14:23:49;4.70;51.90
46890;DHT22;32625;51.080;16.970;2023-03-01T14:26:19;4.60;52.30
46890;DHT22;32625;51.080;16.970;2023-03-01T14:28:46;4.60;52.60
46890;DHT22;32625;51.080;16.970;2023-03-01T14:33:56;4.20;53.90
46890;DHT22;32625;51.080;16.970;2023-03-01T14:36:27;4.40;54.10
46890;DHT22;32625;51.080;16.970;2023-03-01T14:38:55;4.40;54.90
46890;DHT22;32625;51.080;16.970;2023-03-01T14:41:23;4.40;57.00
46890;DHT22;32625;51.080;16.970;2023-03-01T14:44:14;4.30;56.70
46890;DHT22;32625;51.080;16.970;2023-03-01T14:46:38;4.30;56.90
46890;DHT22;32625;51.080;16.970;2023-03-01T14:51:40;4.30;52.80
46890;DHT22;32625;51.080;16.970;2023-03-01T14:54:51;4.10;56.00
46890;DHT22;32625;51.080;16.970;2023-03-01T14:56:59;4.00;59.60
46890;DHT22;32625;51.080;16.970;2023-03-01T14:59:26;4.00;55.20
46890;DHT22;32625;51.080;16.970;2023-03-01T15:01:54;3.90;55.40
46890;DHT22;32625;51.080;16.970;2023-03-01T15:04:22;3.80;57.10
46890;DHT22;32625;51.080;16.970;2023-03-01T15:06:51;3.70;59.80
46890;DHT22;32625;51.080;16.970;2023-03-01T15:09:18;3.60;61.90
46890;DHT22;32625;51.080;16.970;2023-03-01T15:11:45;3.70;63.60
46890;DHT22;32625;51.080;16.970;2023-03-01T15:17:33;3.50;65.20
46890;DHT22;32625;51.080;16.970;2023-03-01T15:20:04;3.40;66.70
46890;DHT22;32625;51.080;16.970;2023-03-01T15:22:33;3.40;67.60
46890;DHT22;32625;51.080;16.970;2023-03-01T15:25:00;3.30;65.60
46890;DHT22;32625;51.080;16.970;2023-03-01T15:27:27;3.20;70.50
46890;DHT22;32625;51.080;16.970;2023-03-01T15:34:51;3.20;68.50
46890;DHT22;32625;51.080;16.970;2023-03-01T15:40:00;3.10;75.10
46890;DHT22;32625;51.080;16.970;2023-03-01T15:47:41;2.90;84.90
46890;DHT22;32625;51.080;16.970;2023-03-01T15:50:22;2.40;89.30
46890;DHT22;32625;51.080;16.970;2023-03-01T15:52:50;2.80;92.30
46890;DHT22;32625;51.080;16.970;2023-03-01T15:55:27;2.70;90.40
46890;DHT22;32625;51.080;16.970;2023-03-01T15:58:00;2.30;91.70
46890;DHT22;32625;51.080;16.970;2023-03-01T16:00:27;2.60;91.50
46890;DHT22;32625;51.080;16.970;2023-03-01T16:02:55;2.60;92.50
46890;DHT22;32625;51.080;16.970;2023-03-01T16:05:27;2.50;93.40
46890;DHT22;32625;51.080;16.970;2023-03-01T16:07:54;2.40;93.60
46890;DHT22;32625;51.080;16.970;2023-03-01T16:10:21;2.40;95.60
46890;DHT22;32625;51.080;16.970;2023-03-01T16:12:49;2.30;96.30
46890;DHT22;32625;51.080;16.970;2023-03-01T16:15:25;2.30;97.30
46890;DHT22;32625;51.080;16.970;2023-03-01T16:17:56;2.20;96.50
46890;DHT22;32625;51.080;16.970;2023-03-01T16:20:26;2.10;96.70
46890;DHT22;32625;51.080;16.970;2023-03-01T16:22:57;2.10;97.60
46890;DHT22;32625;51.080;16.970;2023-03-01T16:25:25;2.00;96.50
46890;DHT22;32625;51.080;16.970;2023-03-01T16:27:52;1.90;96.80
46890;DHT22;32625;51.080;16.970;2023-03-01T16:30:20;1.80;99.70
46890;DHT22;32625;51.080;16.970;2023-03-01T16:32:48;1.80;99.30
46890;DHT22;32625;51.080;16.970;2023-03-01T16:35:16;1.70;99.90
46890;DHT22;32625;51.080;16.970;2023-03-01T16:37:43;1.60;99.90
46890;DHT22;32625;51.080;16.970;2023-03-01T16:40:32;1.50;99.90
46890;DHT22;32625;51.080;16.970;2023-03-01T16:42:58;1.50;99.90
46890;DHT22;32625;51.080;16.970;2023-03-01T16:45:29;1.40;99.90
46890;DHT22;32625;51.080;16.970;2023-03-01T16:47:59;1.40;99.90
46890;DHT22;32625;51.080;16.970;2023-03-01T16:50:26;1.40;99.90
46890;DHT22;32625;51.080;16.970;2023-03-01T16:52:53;1.30;99.90
46890;DHT22;32625;51.080;16.970;2023-03-01T16:55:20;1.20;99.90
46890;DHT22;32625;51.080;16.970;2023-03-01T16:57:48;1.20;99.90
46890;DHT22;32625;51.080;16.970;2023-03-01T17:00:16;1.20;99.90
46890;DHT22;32625;51.080;16.970;2023-03-01T17:02:44;1.20;99.90
46890;DHT22;32625;51.080;16.970;2023-03-01T17:05:11;1.10;99.90
46890;DHT22;32625;51.080;16.970;2023-03-01T17:07:38;1.00;99.90
46890;DHT22;32625;51.080;16.970;2023-03-01T17:10:07;1.00;99.90
46890;DHT22;32625;51.080;16.970;2023-03-01T17:12:35;1.00;99.90
46890;DHT22;32625;51.080;16.970;2023-03-01T17:15:02;0.90;99.90
46890;DHT22;32625;51.080;16.970;2023-03-01T17:17:30;0.90;99.90
46890;DHT22;32625;51.080;16.970;2023-03-01T17:19:57;0.90;99.90
46890;DHT22;32625;51.080;16.970;2023-03-01T17:22:24;0.80;99.90
46890;DHT22;32625;51.080;16.970;2023-03-01T17:24:51;0.80;99.90
46890;DHT22;32625;51.080;16.970;2023-03-01T17:27:18;0.80;99.90
46890;DHT22;32625;51.080;16.970;2023-03-01T17:29:45;0.70;99.90
46890;DHT22;32625;51.080;16.970;2023-03-01T17:32:16;0.70;99.90
46890;DHT22;32625;51.080;16.970;2023-03-01T17:34:45;0.60;99.90
46890;DHT22;32625;51.080;16.970;2023-03-01T17:37:12;0.50;99.90
46890;DHT22;32625;51.080;16.970;2023-03-01T17:39:39;0.50;99.90
46890;DHT22;32625;51.080;16.970;2023-03-01T17:42:06;0.40;99.90
46890;DHT22;32625;51.080;16.970;2023-03-01T17:44:33;0.40;99.90
46890;DHT22;32625;51.080;16.970;2023-03-01T17:47:03;0.30;99.90
46890;DHT22;32625;51.080;16.970;2023-03-01T17:49:30;0.30;99.90
46890;DHT22;32625;51.080;16.970;2023-03-01T17:51:57;0.20;99.90
46890;DHT22;32625;51.080;16.970;2023-03-01T17:54:24;0.20;99.90
46890;DHT22;32625;51.080;16.970;2023-03-01T17:56:51;0.20;99.90
46890;DHT22;32625;51.080;16.970;2023-03-01T17:59:18;0.20;99.90
46890;DHT22;32625;51.080;16.970;2023-03-01T18:01:45;0.20;99.90